Time;durP1;ratioP1;P1;durP2;ratioP2;P2;SDS_P1;SDS_P2;PMS_P1;PMS_P2;Temp;Humidity;BMP_temperature;BMP_pressure;BME280_temperature;BME280_humidity;BME280_pressure;Samples;Min_cycle;Max_cycle;Signal;HPM_P1;HPM_P2
2021/11/26 00:01:42;;;;;;;7.38;2.25;;;5.90;82.50;;;;;;4979017;28;92555;-68
2021/11/26 00:04:10;;;;;;;7.18;1.88;;;6.00;82.50;;;;;;4996983;28;94120;-68
2021/11/26 00:06:37;;;;;;;6.18;2.00;;;6.00;82.60;;;;;;4996674;28;94615;-68
2021/11/26 00:09:04;;;;;;;4.53;1.67;;;6.00;83.00;;;;;;4996761;28;92340;-69
2021/11/26 00:11:32;;;;;;;5.70;1.95;;;6.00;82.20;;;;;;4997183;28;92195;-68
2021/11/26 00:14:08;;;;;;;8.63;2.10;;;6.00;82.10;;;;;;4996952;28;93158;-67
2021/11/26 00:16:40;;;;;;;8.30;2.85;;;6.00;81.90;;;;;;4996752;28;92787;-68
2021/11/26 00:19:08;;;;;;;11.93;2.10;;;6.00;81.80;;;;;;4996023;28;95138;-68
2021/11/26 00:21:38;;;;;;;8.38;1.77;;;6.00;81.50;;;;;;4996466;28;92984;-68
2021/11/26 00:24:07;;;;;;;7.18;2.75;;;6.00;81.40;;;;;;4996670;28;93091;-68
2021/11/26 00:26:36;;;;;;;4.57;2.15;;;5.90;81.30;;;;;;4996170;28;92805;-68
2021/11/26 00:29:03;;;;;;;4.38;1.63;;;5.90;81.40;;;;;;4996038;28;105023;-68
2021/11/26 00:31:30;;;;;;;7.32;2.10;;;5.80;81.40;;;;;;4978776;28;92433;-68
2021/11/26 00:33:57;;;;;;;7.07;2.88;;;5.80;81.50;;;;;;4996465;28;94816;-68
2021/11/26 00:36:24;;;;;;;4.65;2.08;;;5.70;81.60;;;;;;4996493;28;92856;-68
2021/11/26 00:38:51;;;;;;;3.53;2.17;;;5.70;81.90;;;;;;4996630;28;92556;-68
2021/11/26 00:41:19;;;;;;;9.90;2.20;;;5.70;82.20;;;;;;4995990;28;92454;-67
2021/11/26 00:43:46;;;;;;;7.43;2.60;;;5.70;82.40;;;;;;4994178;28;105821;-68
2021/11/26 00:46:13;;;;;;;8.52;2.22;;;5.70;82.80;;;;;;4978434;28;95080;-68
2021/11/26 00:48:40;;;;;;;5.07;2.30;;;5.70;82.70;;;;;;4995726;28;92543;-68
2021/11/26 00:51:07;;;;;;;9.40;2.33;;;5.80;82.80;;;;;;4996277;28;92534;-68
2021/11/26 00:53:35;;;;;;;7.10;2.15;;;5.80;82.90;;;;;;4978405;28;93062;-68
2021/11/26 00:56:03;;;;;;;8.95;2.50;;;5.80;82.90;;;;;;4996230;28;92850;-68
2021/11/26 00:58:30;;;;;;;2.83;1.65;;;5.80;83.20;;;;;;4977608;28;107203;-68
2021/11/26 01:00:57;;;;;;;3.70;2.00;;;5.80;83.30;;;;;;4996647;28;91741;-68
2021/11/26 01:03:25;;;;;;;4.97;1.92;;;5.80;83.20;;;;;;4978168;28;93099;-68
2021/11/26 01:05:52;;;;;;;5.63;1.85;;;5.80;83.20;;;;;;4995860;28;100157;-68
2021/11/26 01:08:19;;;;;;;8.32;2.33;;;5.80;83.70;;;;;;4995120;28;94889;-68
2021/11/26 01:10:47;;;;;;;7.18;2.05;;;5.80;83.60;;;;;;4995919;28;92451;-68
2021/11/26 01:13:15;;;;;;;7.88;1.85;;;5.80;83.50;;;;;;4977853;28;93126;-68
2021/11/26 01:15:43;;;;;;;6.55;2.20;;;5.80;83.60;;;;;;4995466;28;92880;-68
2021/11/26 01:18:14;;;;;;;8.20;2.35;;;5.80;83.60;;;;;;4995988;28;92416;-68
2021/11/26 01:20:42;;;;;;;6.95;1.80;;;5.90;83.70;;;;;;4995887;28;92347;-68
2021/11/26 01:23:09;;;;;;;5.32;1.92;;;5.90;83.70;;;;;;4995742;28;93098;-68
2021/11/26 01:25:36;;;;;;;5.38;1.80;;;5.80;83.60;;;;;;4995873;28;92742;-68
2021/11/26 01:28:04;;;;;;;3.47;1.63;;;5.80;83.50;;;;;;4978008;28;92635;-68
2021/11/26 01:30:36;;;;;;;8.18;2.55;;;5.80;83.60;;;;;;4977574;28;92832;-68
2021/11/26 01:33:08;;;;;;;3.17;1.67;;;5.80;83.70;;;;;;4994124;28;95538;-68
2021/11/26 01:35:38;;;;;;;5.70;1.98;;;5.80;83.70;;;;;;4995369;28;95104;-73
2021/11/26 01:38:07;;;;;;;3.33;1.70;;;5.80;83.70;;;;;;4996170;28;92397;-73
2021/11/26 01:40:36;;;;;;;10.90;2.75;;;5.70;83.80;;;;;;4995560;28;93021;-72
2021/11/26 01:43:05;;;;;;;2.80;1.60;;;5.70;83.80;;;;;;4994800;28;109825;-73
2021/11/26 01:45:42;;;;;;;5.07;1.90;;;5.70;83.80;;;;;;4977462;28;92482;-73
2021/11/26 01:48:09;;;;;;;7.50;2.20;;;5.70;83.90;;;;;;4995284;28;92449;-72
2021/11/26 01:50:36;;;;;;;3.45;2.05;;;5.60;83.90;;;;;;4961585;28;91799;-73
2021/11/26 01:53:03;;;;;;;8.43;2.13;;;5.60;83.80;;;;;;4995849;28;92961;-73
2021/11/26 01:55:31;;;;;;;8.40;2.28;;;5.60;83.70;;;;;;4998503;28;92762;-73
2021/11/26 01:57:59;;;;;;;4.68;2.15;;;5.60;83.70;;;;;;4997883;28;95146;-72
2021/11/26 02:00:30;;;;;;;14.32;3.35;;;5.50;83.70;;;;;;4999112;28;92478;-73
2021/11/26 02:02:58;;;;;;;8.05;1.92;;;5.50;83.90;;;;;;4999018;28;93279;-73
2021/11/26 02:05:25;;;;;;;5.53;2.30;;;5.50;84.00;;;;;;4998835;28;92919;-73
2021/11/26 02:07:52;;;;;;;7.75;2.22;;;5.40;84.00;;;;;;4981025;28;92521;-73
2021/11/26 02:10:19;;;;;;;9.93;2.10;;;5.40;84.30;;;;;;4998920;28;92440;-72
2021/11/26 02:12:46;;;;;;;7.72;2.20;;;5.40;84.40;;;;;;4998203;28;94068;-73
2021/11/26 02:15:22;;;;;;;3.83;1.88;;;5.40;84.50;;;;;;4981081;28;95160;-72
2021/11/26 02:17:51;;;;;;;4.03;1.92;;;5.40;84.70;;;;;;4998709;28;92491;-73
2021/11/26 02:20:21;;;;;;;3.80;1.90;;;5.40;84.60;;;;;;4980838;28;92618;-72
2021/11/26 02:22:49;;;;;;;3.70;2.25;;;5.40;85.00;;;;;;4962803;28;96709;-73
2021/11/26 02:25:16;;;;;;;5.68;2.58;;;5.40;85.60;;;;;;4980335;28;96389;-72
2021/11/26 02:27:44;;;;;;;8.23;2.30;;;5.40;85.00;;;;;;4998327;28;96124;-73
2021/11/26 02:30:18;;;;;;;7.05;2.28;;;5.50;85.10;;;;;;4998701;28;92454;-72
2021/11/26 02:32:52;;;;;;;9.05;1.98;;;5.50;85.20;;;;;;4998310;28;93125;-73
2021/11/26 02:35:19;;;;;;;7.20;2.50;;;5.50;85.30;;;;;;4980848;28;92722;-73
2021/11/26 02:37:47;;;;;;;6.80;2.05;;;5.50;85.40;;;;;;4998406;28;92530;-73
2021/11/26 02:40:17;;;;;;;4.10;1.85;;;5.50;85.30;;;;;;4998921;28;91717;-73
2021/11/26 02:42:45;;;;;;;6.45;2.15;;;5.60;85.30;;;;;;4980154;28;95517;-73
2021/11/26 02:45:14;;;;;;;7.05;2.50;;;5.60;85.30;;;;;;4980132;28;93994;-73
2021/11/26 02:47:41;;;;;;;4.88;1.90;;;5.60;85.10;;;;;;4996630;28;94857;-72
2021/11/26 02:50:09;;;;;;;5.15;2.00;;;5.60;85.10;;;;;;4998403;28;92462;-73
2021/11/26 02:52:39;;;;;;;7.88;2.00;;;5.60;85.00;;;;;;4979957;28;94005;-73
2021/11/26 02:55:08;;;;;;;8.07;2.08;;;5.60;84.90;;;;;;4980145;28;94036;-73
2021/11/26 02:57:35;;;;;;;3.47;1.92;;;5.60;84.90;;;;;;4980319;28;92424;-73
2021/11/26 03:00:05;;;;;;;4.35;2.13;;;5.60;85.00;;;;;;4998046;28;92500;-73
2021/11/26 03:02:31;;;;;;;4.15;1.50;;;5.70;85.10;;;;;;4997850;28;94751;-73
2021/11/26 03:04:58;;;;;;;3.33;1.65;;;5.70;84.90;;;;;;4979696;28;91750;-73
2021/11/26 03:07:25;;;;;;;5.47;1.70;;;5.70;85.80;;;;;;4980177;28;92474;-73
2021/11/26 03:09:52;;;;;;;4.57;1.80;;;5.70;85.10;;;;;;4997131;28;108019;-73
2021/11/26 03:12:20;;;;;;;2.70;1.77;;;5.80;85.00;;;;;;4996643;28;95392;-68
2021/11/26 03:14:47;;;;;;;2.90;1.63;;;5.80;84.90;;;;;;4997318;28;96643;-68
2021/11/26 03:17:15;;;;;;;6.00;1.73;;;5.80;84.80;;;;;;4980365;28;93396;-68
2021/11/26 03:19:42;;;;;;;4.53;1.65;;;5.80;84.70;;;;;;4997602;28;92438;-68
2021/11/26 03:22:09;;;;;;;5.60;1.63;;;5.80;84.60;;;;;;4997595;28;93109;-68
2021/11/26 03:24:36;;;;;;;3.40;1.63;;;5.80;84.80;;;;;;4979873;28;92922;-68
2021/11/26 03:27:03;;;;;;;2.35;1.50;;;5.80;84.80;;;;;;4997444;28;92448;-68
2021/11/26 03:29:30;;;;;;;5.57;1.95;;;5.80;84.80;;;;;;4997348;28;106797;-68
2021/11/26 03:31:58;;;;;;;7.10;2.13;;;5.90;85.10;;;;;;4979357;28;96305;-68
2021/11/26 03:34:25;;;;;;;7.10;2.13;;;5.90;85.00;;;;;;4979136;28;93927;-68
2021/11/26 03:36:52;;;;;;;7.70;1.90;;;5.90;85.20;;;;;;4996146;28;94818;-68
2021/11/26 03:39:20;;;;;;;5.07;1.90;;;5.90;85.30;;;;;;4979435;28;92442;-68
2021/11/26 03:41:46;;;;;;;5.55;1.88;;;5.90;85.20;;;;;;4997033;28;93142;-68
2021/11/26 03:44:13;;;;;;;4.38;1.90;;;6.00;85.30;;;;;;4997152;28;92799;-68
2021/11/26 03:46:40;;;;;;;3.15;2.03;;;5.90;85.20;;;;;;4986119;28;109192;-68
2021/11/26 03:49:07;;;;;;;4.03;2.25;;;6.00;85.10;;;;;;5016783;28;92569;-67
2021/11/26 03:51:34;;;;;;;6.82;2.28;;;6.00;85.10;;;;;;5016793;28;93075;-68
2021/11/26 03:54:01;;;;;;;5.60;2.33;;;6.00;85.20;;;;;;4999456;28;92860;-68
2021/11/26 03:56:28;;;;;;;6.93;3.45;;;5.90;85.10;;;;;;4999276;28;92499;-68
2021/11/26 03:58:55;;;;;;;5.20;2.08;;;6.00;85.30;;;;;;5016942;28;92411;-68
2021/11/26 04:01:22;;;;;;;6.72;2.40;;;6.00;85.50;;;;;;5015640;28;95425;-68
2021/11/26 04:03:49;;;;;;;8.18;2.67;;;6.00;85.60;;;;;;5016874;28;95287;-68
2021/11/26 04:06:16;;;;;;;10.57;3.45;;;6.00;85.50;;;;;;4999011;28;92482;-68
2021/11/26 04:08:43;;;;;;;10.68;3.50;;;6.00;85.60;;;;;;4999061;28;92462;-68
2021/11/26 04:11:10;;;;;;;6.75;2.35;;;6.00;85.50;;;;;;5016635;28;92440;-68
2021/11/26 04:13:37;;;;;;;9.95;2.85;;;6.00;85.20;;;;;;5016823;28;92524;-73
2021/11/26 04:16:06;;;;;;;7.47;2.80;;;6.00;85.40;;;;;;4998729;28;92472;-72
2021/11/26 04:18:34;;;;;;;5.95;2.85;;;6.00;85.20;;;;;;5017372;28;91677;-73
2021/11/26 04:21:02;;;;;;;7.35;2.60;;;6.10;85.00;;;;;;5016509;28;93179;-72
2021/11/26 04:23:30;;;;;;;5.78;2.85;;;6.10;84.90;;;;;;5016452;28;92894;-72
2021/11/26 04:25:57;;;;;;;5.15;2.80;;;6.10;84.90;;;;;;5014696;28;102082;-73
2021/11/26 04:28:25;;;;;;;5.25;2.53;;;6.00;84.80;;;;;;4998834;28;92724;-72
2021/11/26 04:30:52;;;;;;;6.63;2.50;;;6.00;84.80;;;;;;5016277;28;93079;-73
2021/11/26 04:33:19;;;;;;;6.47;2.78;;;6.00;84.90;;;;;;5016511;28;93680;-73
2021/11/26 04:35:48;;;;;;;6.97;2.75;;;5.90;84.80;;;;;;5016804;28;92399;-72
2021/11/26 04:38:16;;;;;;;5.55;2.67;;;5.90;84.80;;;;;;5016680;28;92468;-73
2021/11/26 04:40:44;;;;;;;7.32;2.40;;;5.90;84.90;;;;;;4998230;28;94919;-72
2021/11/26 04:43:12;;;;;;;6.85;2.63;;;5.80;84.80;;;;;;5016557;28;92702;-73
2021/11/26 04:45:39;;;;;;;3.83;2.35;;;5.80;84.80;;;;;;5016053;28;101174;-73
2021/11/26 04:48:06;;;;;;;6.05;2.33;;;5.70;84.80;;;;;;5015833;28;92678;-72
2021/11/26 04:50:33;;;;;;;4.30;1.92;;;5.60;84.90;;;;;;5014962;28;95544;-73
2021/11/26 04:53:00;;;;;;;4.68;2.33;;;5.60;85.10;;;;;;5015828;28;99858;-68
2021/11/26 04:55:27;;;;;;;5.80;1.70;;;5.60;85.10;;;;;;5016321;28;92727;-68
2021/11/26 04:57:54;;;;;;;3.75;1.65;;;5.50;85.50;;;;;;5016112;28;92450;-67
2021/11/26 05:00:22;;;;;;;2.85;1.55;;;5.50;85.80;;;;;;5016134;28;93186;-68
2021/11/26 05:02:50;;;;;;;1.70;1.33;;;5.60;85.70;;;;;;5016082;28;92797;-68
2021/11/26 05:05:17;;;;;;;1.90;1.63;;;5.60;85.80;;;;;;5015302;28;104306;-68
2021/11/26 05:07:45;;;;;;;2.35;1.75;;;5.60;85.40;;;;;;5016544;28;91664;-68
2021/11/26 05:10:13;;;;;;;5.03;1.77;;;5.60;85.30;;;;;;5015630;28;93104;-68
2021/11/26 05:12:46;;;;;;;4.97;2.15;;;5.60;85.10;;;;;;4997896;28;93928;-68
2021/11/26 05:15:15;;;;;;;4.63;2.28;;;5.50;85.40;;;;;;5014783;28;94826;-68
2021/11/26 05:17:44;;;;;;;4.13;2.20;;;5.50;85.50;;;;;;5016096;28;92451;-68
2021/11/26 05:20:12;;;;;;;2.65;2.03;;;5.50;85.80;;;;;;4997738;28;94867;-68
2021/11/26 05:22:39;;;;;;;5.68;2.03;;;5.50;85.70;;;;;;5015880;28;92828;-68
2021/11/26 05:25:06;;;;;;;3.30;1.98;;;5.50;85.70;;;;;;5015309;28;100826;-68
2021/11/26 05:27:33;;;;;;;3.75;2.10;;;5.50;85.80;;;;;;5015894;28;92363;-67
2021/11/26 05:30:00;;;;;;;3.42;2.30;;;5.50;85.70;;;;;;4997680;28;93085;-67
2021/11/26 05:32:27;;;;;;;6.78;2.33;;;5.40;85.70;;;;;;5016156;28;92876;-67
2021/11/26 05:34:54;;;;;;;2.22;1.92;;;5.40;85.80;;;;;;4997777;28;92574;-68
2021/11/26 05:37:21;;;;;;;3.15;2.03;;;5.40;86.20;;;;;;5015660;28;92417;-73
2021/11/26 05:39:48;;;;;;;3.35;2.30;;;5.40;86.60;;;;;;5014021;28;110354;-73
2021/11/26 05:42:15;;;;;;;3.13;2.25;;;5.40;86.50;;;;;;4997473;28;95128;-73
2021/11/26 05:44:42;;;;;;;6.45;3.10;;;5.40;86.10;;;;;;5015752;28;92422;-73
2021/11/26 05:47:09;;;;;;;4.15;2.85;;;5.40;86.20;;;;;;4997758;28;92499;-73
2021/11/26 05:49:36;;;;;;;5.72;3.25;;;5.40;86.20;;;;;;4997457;28;92943;-72
2021/11/26 05:52:03;;;;;;;5.25;3.35;;;5.40;86.10;;;;;;5015335;28;92762;-73
2021/11/26 05:54:31;;;;;;;5.68;3.80;;;5.40;86.00;;;;;;4996963;28;101932;-73
2021/11/26 05:56:58;;;;;;;7.38;4.10;;;5.40;86.40;;;;;;5015737;28;91754;-67
2021/11/26 05:59:25;;;;;;;9.40;4.40;;;5.40;86.50;;;;;;5014974;28;93206;-68
2021/11/26 06:01:52;;;;;;;7.60;4.55;;;5.40;86.50;;;;;;5015280;28;92361;-68
2021/11/26 06:04:19;;;;;;;9.00;5.07;;;5.40;86.20;;;;;;4995741;28;94901;-68
2021/11/26 06:06:46;;;;;;;6.70;4.80;;;5.50;86.40;;;;;;4997222;28;92866;-68
2021/11/26 06:09:13;;;;;;;7.95;5.35;;;5.50;86.40;;;;;;4996965;28;105715;-68
2021/11/26 06:11:40;;;;;;;10.60;5.90;;;5.60;86.80;;;;;;5015298;28;92832;-72
2021/11/26 06:14:06;;;;;;;8.65;5.32;;;5.60;86.50;;;;;;5014567;28;92405;-73
2021/11/26 06:16:33;;;;;;;6.95;5.10;;;5.60;86.30;;;;;;4997588;28;92455;-73
2021/11/26 06:19:00;;;;;;;8.63;5.15;;;5.60;86.20;;;;;;5015023;28;93160;-73
2021/11/26 06:21:27;;;;;;;8.35;5.15;;;5.60;85.80;;;;;;5015148;28;92756;-72
2021/11/26 06:23:54;;;;;;;8.85;5.53;;;5.60;86.10;;;;;;5014802;28;96267;-73
2021/11/26 06:26:21;;;;;;;10.68;5.57;;;5.60;86.20;;;;;;5014839;28;92412;-73
2021/11/26 06:28:48;;;;;;;10.38;5.93;;;5.60;86.00;;;;;;5013087;28;113427;-73
2021/11/26 06:31:15;;;;;;;11.02;5.95;;;5.60;86.40;;;;;;4996881;28;95392;-73
2021/11/26 06:33:42;;;;;;;10.50;6.40;;;5.60;86.20;;;;;;5015266;28;92417;-73
2021/11/26 06:36:09;;;;;;;12.00;6.97;;;5.70;86.10;;;;;;4997040;28;92641;-73
2021/11/26 06:38:36;;;;;;;9.90;6.80;;;5.70;86.00;;;;;;5014931;28;92997;-73
2021/11/26 06:41:04;;;;;;;11.15;7.57;;;5.70;85.90;;;;;;5016506;28;92795;-73
2021/11/26 06:43:31;;;;;;;13.23;7.05;;;5.80;85.70;;;;;;5018053;28;92481;-68
2021/11/26 06:45:58;;;;;;;10.65;7.53;;;5.70;86.50;;;;;;5018206;28;100138;-68
2021/11/26 06:48:25;;;;;;;14.23;6.85;;;5.80;86.10;;;;;;4995734;28;96516;-68
2021/11/26 06:50:52;;;;;;;10.63;7.80;;;5.80;86.50;;;;;;5000049;28;94017;-68
2021/11/26 06:53:19;;;;;;;10.43;7.53;;;5.90;86.20;;;;;;5016911;28;94799;-68
2021/11/26 06:55:46;;;;;;;12.07;8.05;;;5.90;86.00;;;;;;4983481;28;92588;-68
2021/11/26 06:58:13;;;;;;;9.88;7.47;;;5.90;85.70;;;;;;5017698;28;92581;-68
2021/11/26 07:00:40;;;;;;;10.60;7.53;;;6.00;85.60;;;;;;5018073;28;92700;-73
2021/11/26 07:03:07;;;;;;;13.45;8.13;;;6.00;85.20;;;;;;5017609;28;106879;-73
2021/11/26 07:05:34;;;;;;;12.45;8.57;;;6.00;85.40;;;;;;5017732;28;92962;-68
2021/11/26 07:08:01;;;;;;;11.20;7.47;;;6.00;85.10;;;;;;5017891;28;93086;-68
2021/11/26 07:10:28;;;;;;;13.02;7.03;;;6.00;85.10;;;;;;5017848;28;92735;-68
2021/11/26 07:12:55;;;;;;;10.43;6.35;;;6.00;84.90;;;;;;5017992;28;92538;-68
2021/11/26 07:15:22;;;;;;;10.40;5.95;;;6.00;84.70;;;;;;5017753;28;92803;-68
2021/11/26 07:17:49;;;;;;;12.90;6.22;;;6.00;84.70;;;;;;4981793;28;96479;-68
2021/11/26 07:20:16;;;;;;;10.13;5.10;;;6.00;84.60;;;;;;5017289;28;95216;-68
2021/11/26 07:22:44;;;;;;;10.13;5.30;;;6.10;84.20;;;;;;4999049;28;104587;-68
2021/11/26 07:25:12;;;;;;;7.90;5.20;;;6.10;84.20;;;;;;5017781;28;92875;-68
2021/11/26 07:27:39;;;;;;;7.90;5.43;;;6.10;83.90;;;;;;5017561;28;93134;-68
2021/11/26 07:30:08;;;;;;;7.97;5.03;;;6.10;84.00;;;;;;5017670;28;92798;-68
2021/11/26 07:32:35;;;;;;;7.15;4.75;;;6.10;83.70;;;;;;4999302;28;92410;-68
2021/11/26 07:35:03;;;;;;;6.85;4.30;;;6.10;84.20;;;;;;5017960;28;91707;-68
2021/11/26 07:37:30;;;;;;;5.88;3.67;;;6.10;84.60;;;;;;5017041;28;93128;-67
2021/11/26 07:39:57;;;;;;;7.43;3.00;;;6.10;84.60;;;;;;5017010;28;103094;-68
2021/11/26 07:42:24;;;;;;;4.22;2.92;;;6.10;84.00;;;;;;4998139;28;95524;-67
2021/11/26 07:44:51;;;;;;;6.18;2.80;;;6.20;83.70;;;;;;5017416;28;92331;-68
2021/11/26 07:47:19;;;;;;;3.25;2.50;;;6.20;82.90;;;;;;4999211;28;94099;-67
2021/11/26 07:49:51;;;;;;;5.57;2.65;;;6.10;82.70;;;;;;4998847;28;93967;-68
2021/11/26 07:52:20;;;;;;;6.68;3.10;;;6.10;82.50;;;;;;4998483;28;94040;-68
2021/11/26 07:54:48;;;;;;;5.03;2.80;;;6.10;82.40;;;;;;5017127;28;92509;-68
2021/11/26 07:57:16;;;;;;;5.45;3.53;;;6.10;82.40;;;;;;5002029;28;93120;-73
2021/11/26 07:59:43;;;;;;;7.32;3.33;;;6.10;82.70;;;;;;5017638;28;92787;-74
2021/11/26 08:02:10;;;;;;;5.60;3.17;;;6.00;82.40;;;;;;5017193;28;92367;-73
2021/11/26 08:04:37;;;;;;;5.18;3.70;;;6.00;82.50;;;;;;5016732;28;92883;-73
2021/11/26 08:07:06;;;;;;;7.70;4.25;;;6.00;82.80;;;;;;5015671;28;95391;-73
2021/11/26 08:09:34;;;;;;;5.72;3.88;;;5.90;83.20;;;;;;4998614;28;96361;-73
2021/11/26 08:12:01;;;;;;;5.95;3.83;;;5.90;83.30;;;;;;5017054;28;92381;-73
2021/11/26 08:14:28;;;;;;;6.47;4.32;;;5.90;83.60;;;;;;4998362;28;93282;-73
2021/11/26 08:16:56;;;;;;;7.63;4.50;;;5.90;84.10;;;;;;5016839;28;93019;-73
2021/11/26 08:19:24;;;;;;;6.43;4.72;;;5.90;83.40;;;;;;5015985;28;105547;-73
2021/11/26 08:21:52;;;;;;;6.28;3.95;;;6.00;84.20;;;;;;5013870;28;98678;-73
2021/11/26 08:24:21;;;;;;;7.78;4.22;;;6.00;83.70;;;;;;5014140;28;97763;-73
2021/11/26 08:26:48;;;;;;;9.05;4.65;;;6.00;83.20;;;;;;5013348;28;99036;-73
2021/11/26 08:29:16;;;;;;;6.28;4.25;;;6.10;83.10;;;;;;4995729;28;99839;-73
2021/11/26 08:31:43;;;;;;;7.65;4.50;;;6.10;83.30;;;;;;5013048;28;99244;-73
2021/11/26 08:34:10;;;;;;;5.75;3.95;;;6.20;83.20;;;;;;5013684;28;98501;-73
2021/11/26 08:36:37;;;;;;;5.22;3.85;;;6.20;83.60;;;;;;5010019;28;103819;-73
2021/11/26 08:39:06;;;;;;;8.43;4.25;;;6.30;82.80;;;;;;4995339;28;98729;-73
2021/11/26 08:41:33;;;;;;;6.45;4.30;;;6.30;83.00;;;;;;4995509;28;98885;-73
2021/11/26 08:44:01;;;;;;;7.75;3.63;;;6.40;82.60;;;;;;5013238;28;98897;-73
2021/11/26 08:46:28;;;;;;;10.55;4.15;;;6.40;82.70;;;;;;5012866;28;99073;-73
2021/11/26 08:48:55;;;;;;;6.50;4.15;;;6.50;82.10;;;;;;5012880;28;98856;-73
2021/11/26 08:51:26;;;;;;;8.82;3.92;;;6.60;82.40;;;;;;5013560;28;98920;-73
2021/11/26 08:53:56;;;;;;;8.60;3.92;;;6.70;81.90;;;;;;5013484;28;98718;-73
2021/11/26 08:56:25;;;;;;;9.50;3.80;;;6.80;81.60;;;;;;5012212;28;101924;-68
2021/11/26 08:58:52;;;;;;;6.95;3.25;;;6.90;81.00;;;;;;5012533;28;98505;-68
2021/11/26 09:01:19;;;;;;;11.18;4.38;;;6.90;81.20;;;;;;4995610;28;98528;-68
2021/11/26 09:03:49;;;;;;;8.75;4.07;;;7.00;81.10;;;;;;4994087;28;99077;-68
2021/11/26 09:06:20;;;;;;;6.50;3.38;;;7.20;80.50;;;;;;5012350;28;106211;-68
2021/11/26 09:08:47;;;;;;;4.72;3.30;;;7.30;80.20;;;;;;5012565;28;98883;-68
2021/11/26 09:11:16;;;;;;;8.93;4.05;;;7.40;79.70;;;;;;5013082;28;98712;-68
2021/11/26 09:13:43;;;;;;;8.13;3.17;;;7.50;79.80;;;;;;5013065;28;97834;-68
2021/11/26 09:16:10;;;;;;;7.78;3.17;;;7.60;79.30;;;;;;5012689;28;99144;-68
2021/11/26 09:18:38;;;;;;;7.10;2.83;;;7.60;79.50;;;;;;5012330;28;98733;-68
2021/11/26 09:21:06;;;;;;;5.10;2.97;;;7.70;79.30;;;;;;5012801;28;99340;-68
2021/11/26 09:23:33;;;;;;;6.63;2.95;;;7.70;78.50;;;;;;5012645;28;98520;-68
2021/11/26 09:26:00;;;;;;;6.55;3.28;;;7.80;78.20;;;;;;4993563;28;122333;-68
2021/11/26 09:28:27;;;;;;;6.45;2.50;;;7.80;77.90;;;;;;4994684;28;98881;-68
2021/11/26 09:30:54;;;;;;;4.57;2.55;;;7.90;77.30;;;;;;4994982;28;99081;-68
2021/11/26 09:33:22;;;;;;;7.93;3.03;;;7.90;77.10;;;;;;5012886;28;98631;-68
2021/11/26 09:35:49;;;;;;;8.90;3.00;;;7.90;76.60;;;;;;5012164;28;99015;-68
2021/11/26 09:38:17;;;;;;;8.35;2.85;;;7.80;77.00;;;;;;5012797;28;98815;-68
2021/11/26 09:40:45;;;;;;;4.68;3.10;;;7.80;77.00;;;;;;4994489;28;98535;-68
2021/11/26 09:43:13;;;;;;;5.97;2.72;;;7.80;77.30;;;;;;5012586;28;98512;-68
2021/11/26 09:45:41;;;;;;;6.75;2.70;;;7.80;77.40;;;;;;4993423;28;101237;-68
2021/11/26 09:48:08;;;;;;;5.65;2.90;;;7.90;76.50;;;;;;5011910;28;103765;-68
2021/11/26 09:50:37;;;;;;;7.15;2.88;;;7.90;76.00;;;;;;5012415;28;98549;-68
2021/11/26 09:53:25;;;;;;;5.97;2.47;;;7.90;76.30;;;;;;5012342;28;98519;-68
2021/11/26 09:55:54;;;;;;;8.43;3.08;;;8.00;75.90;;;;;;5012057;28;99021;-68
2021/11/26 09:58:23;;;;;;;6.75;2.95;;;7.90;76.10;;;;;;4994058;28;99996;-69
2021/11/26 10:00:51;;;;;;;5.40;3.25;;;8.00;75.80;;;;;;4994200;28;98588;-68
2021/11/26 10:03:21;;;;;;;7.18;2.88;;;8.00;75.60;;;;;;5012729;28;97770;-68
2021/11/26 10:05:48;;;;;;;8.73;2.95;;;8.10;75.60;;;;;;4993809;28;99187;-68
2021/11/26 10:08:23;;;;;;;8.82;2.88;;;8.10;75.50;;;;;;5011882;28;98761;-68
2021/11/26 10:10:58;;;;;;;5.25;2.30;;;8.10;75.40;;;;;;5011857;28;99828;-68
2021/11/26 10:13:28;;;;;;;6.03;3.05;;;8.10;74.90;;;;;;5012370;28;98541;-68
2021/11/26 10:15:55;;;;;;;8.52;3.10;;;8.10;74.80;;;;;;4996882;28;100226;-68
2021/11/26 10:18:27;;;;;;;5.93;2.78;;;8.10;74.70;;;;;;5015471;28;98819;-68
2021/11/26 10:21:10;;;;;;;8.52;3.80;;;8.10;75.10;;;;;;5015709;28;98571;-67
2021/11/26 10:23:49;;;;;;;4.43;2.85;;;8.10;74.70;;;;;;4997428;28;98557;-68
2021/11/26 10:26:21;;;;;;;6.32;2.85;;;8.10;74.80;;;;;;5015524;28;100124;-68
2021/11/26 10:28:53;;;;;;;6.53;3.08;;;8.10;74.20;;;;;;4997293;28;100009;-69
2021/11/26 10:31:28;;;;;;;5.05;3.53;;;8.10;74.70;;;;;;4997475;28;98492;-68
2021/11/26 10:33:59;;;;;;;8.13;3.03;;;8.10;74.70;;;;;;5015227;28;98540;-68
2021/11/26 10:36:26;;;;;;;7.20;3.30;;;8.10;74.40;;;;;;5014653;28;99744;-68
2021/11/26 10:38:55;;;;;;;6.57;2.97;;;8.10;74.10;;;;;;5014256;28;112196;-68
2021/11/26 10:41:29;;;;;;;8.57;3.40;;;8.10;73.90;;;;;;5015740;28;98536;-68
2021/11/26 10:44:05;;;;;;;5.63;2.95;;;8.10;74.20;;;;;;5015456;28;98479;-68
2021/11/26 11:00:01;;;;;;;9.35;3.13;;;8.30;73.60;;;;;;5014820;28;98714;-68
2021/11/26 11:02:31;;;;;;;9.02;3.10;;;8.40;72.90;;;;;;5015120;28;99351;-68
2021/11/26 11:04:58;;;;;;;8.50;3.00;;;8.30;73.10;;;;;;5014995;28;98509;-68
2021/11/26 11:07:25;;;;;;;8.85;3.65;;;8.30;73.00;;;;;;5014692;28;98998;-68
2021/11/26 11:09:55;;;;;;;7.15;2.95;;;8.40;72.50;;;;;;5014507;28;99157;-68
2021/11/26 11:12:30;;;;;;;7.88;3.00;;;8.50;72.40;;;;;;5014850;28;98765;-68
2021/11/26 11:15:00;;;;;;;11.82;3.38;;;8.60;72.60;;;;;;5014615;28;98575;-68
2021/11/26 11:17:29;;;;;;;5.60;3.08;;;8.60;72.70;;;;;;4996423;28;101930;-68
2021/11/26 11:19:59;;;;;;;8.93;3.42;;;8.70;72.10;;;;;;5014735;28;98591;-68
2021/11/26 11:22:31;;;;;;;4.90;2.80;;;8.80;71.70;;;;;;4997840;28;98730;-68
2021/11/26 11:24:59;;;;;;;5.40;2.67;;;9.00;71.30;;;;;;5014415;28;98558;-68
2021/11/26 11:27:26;;;;;;;11.20;3.70;;;9.10;70.50;;;;;;5013114;28;99854;-68
2021/11/26 11:29:53;;;;;;;6.68;3.28;;;9.20;70.90;;;;;;4995950;28;100926;-68
2021/11/26 11:32:21;;;;;;;8.15;3.60;;;9.20;70.20;;;;;;4997312;28;99357;-73
2021/11/26 11:34:48;;;;;;;14.68;4.03;;;9.30;69.60;;;;;;5014372;28;98542;-73
2021/11/26 11:37:18;;;;;;;8.73;3.55;;;9.30;69.80;;;;;;4979440;28;100189;-73
2021/11/26 11:39:50;;;;;;;7.30;3.60;;;9.30;69.90;;;;;;5014060;28;98978;-73
2021/11/26 11:42:35;;;;;;;8.57;3.92;;;9.30;69.70;;;;;;5014819;28;98500;-73
2021/11/26 11:45:12;;;;;;;8.52;3.90;;;9.40;69.60;;;;;;5014722;28;97671;-73
2021/11/26 11:47:53;;;;;;;11.30;4.40;;;9.30;70.00;;;;;;5014123;28;99141;-68
2021/11/26 11:50:26;;;;;;;8.95;3.90;;;9.20;69.40;;;;;;5013872;28;98806;-68
2021/11/26 11:52:58;;;;;;;10.38;4.72;;;9.00;69.60;;;;;;5014012;28;99245;-68
2021/11/26 11:55:38;;;;;;;7.13;4.25;;;9.00;70.20;;;;;;4996196;28;98468;-68
2021/11/26 11:58:19;;;;;;;8.98;4.40;;;9.00;69.50;;;;;;5013979;28;98990;-68
2021/11/26 12:00:49;;;;;;;7.20;4.00;;;9.10;69.80;;;;;;5013838;28;98962;-68
2021/11/26 12:03:20;;;;;;;11.88;4.47;;;9.10;68.80;;;;;;5014576;28;98930;-68
2021/11/26 12:06:02;;;;;;;7.65;3.47;;;9.20;68.90;;;;;;4996192;28;98986;-68
2021/11/26 12:08:30;;;;;;;12.77;4.53;;;9.20;69.10;;;;;;5013880;28;99181;-68
2021/11/26 12:11:00;;;;;;;10.18;4.65;;;9.20;69.50;;;;;;5013161;28;111575;-68
2021/11/26 12:13:27;;;;;;;11.48;4.72;;;9.30;68.80;;;;;;5013916;28;98528;-68
2021/11/26 12:16:16;;;;;;;7.45;5.25;;;9.30;69.20;;;;;;4995746;28;98492;-68
2021/11/26 12:18:49;;;;;;;10.68;4.50;;;9.40;68.20;;;;;;5013378;28;99867;-68
2021/11/26 12:21:31;;;;;;;8.73;4.65;;;9.40;68.40;;;;;;5013449;28;99538;-68
2021/11/26 12:24:12;;;;;;;8.93;4.70;;;9.30;67.80;;;;;;5013935;28;98556;-68
2021/11/26 12:26:47;;;;;;;7.25;4.35;;;9.20;68.20;;;;;;5014066;28;98609;-68
2021/11/26 12:29:15;;;;;;;10.05;4.47;;;9.10;67.90;;;;;;4996738;28;99064;-68
2021/11/26 12:31:43;;;;;;;10.27;5.13;;;9.00;68.30;;;;;;4994933;28;100025;-68
2021/11/26 12:34:13;;;;;;;12.13;4.65;;;9.00;68.50;;;;;;5013443;28;98598;-68
2021/11/26 12:36:40;;;;;;;8.32;4.43;;;9.00;68.70;;;;;;5014066;28;97899;-68
2021/11/26 12:39:14;;;;;;;10.60;4.55;;;8.90;67.90;;;;;;5011828;28;99752;-68
2021/11/26 12:41:44;;;;;;;8.35;4.25;;;9.00;67.90;;;;;;4995636;28;98746;-68
2021/11/26 12:44:19;;;;;;;11.48;5.00;;;9.00;68.40;;;;;;4994685;28;99207;-68
2021/11/26 12:46:53;;;;;;;11.65;4.57;;;9.00;68.60;;;;;;4995379;28;98561;-68
2021/11/26 12:51:56;;;;;;;9.98;4.30;;;8.90;68.40;;;;;;5012958;28;98769;-68
2021/11/26 12:54:32;;;;;;;7.07;4.40;;;8.90;68.80;;;;;;5013440;28;98517;-68
2021/11/26 12:57:08;;;;;;;10.45;3.65;;;8.80;69.00;;;;;;5013111;28;98479;-68
2021/11/26 12:59:44;;;;;;;9.80;4.18;;;8.80;68.10;;;;;;4995572;28;99020;-68
2021/11/26 13:02:20;;;;;;;7.88;4.18;;;8.80;68.80;;;;;;4995386;28;98820;-68
2021/11/26 13:04:49;;;;;;;6.47;3.78;;;8.80;69.50;;;;;;5013493;28;98496;-68
2021/11/26 13:07:25;;;;;;;8.70;4.25;;;8.80;68.40;;;;;;5012963;28;98500;-68
2021/11/26 13:09:57;;;;;;;8.63;4.10;;;8.80;68.70;;;;;;5012786;28;99900;-68
2021/11/26 13:12:38;;;;;;;7.70;4.38;;;8.70;68.00;;;;;;5012994;28;99452;-68
2021/11/26 13:15:09;;;;;;;9.27;3.40;;;8.70;68.10;;;;;;5012840;28;98570;-68
2021/11/26 13:17:53;;;;;;;8.55;3.33;;;8.60;68.20;;;;;;5012840;28;98439;-68
2021/11/26 13:20:33;;;;;;;13.15;4.72;;;8.50;68.50;;;;;;5012503;28;99229;-68